createdAt,value
2022-07-30T00:00:52.989Z,20.70
2022-07-30T00:03:20.834Z,20.70
2022-07-30T00:05:48.519Z,20.70
2022-07-30T00:08:16.116Z,20.60
2022-07-30T00:10:43.858Z,20.60
2022-07-30T00:13:14.359Z,20.70
2022-07-30T00:15:42.118Z,20.60
2022-07-30T00:18:10.049Z,20.60
2022-07-30T00:20:40.403Z,20.60
2022-07-30T00:23:11.612Z,20.60
2022-07-30T00:25:39.149Z,20.60
2022-07-30T00:28:06.789Z,20.60
2022-07-30T00:30:34.127Z,20.50
2022-07-30T00:33:01.972Z,20.50
2022-07-30T00:35:29.348Z,20.50
2022-07-30T00:37:57.259Z,20.40
2022-07-30T00:40:24.771Z,20.40
2022-07-30T00:42:52.482Z,20.40
2022-07-30T00:45:20.011Z,20.40
2022-07-30T00:47:47.893Z,20.40
2022-07-30T00:50:16.550Z,20.30
2022-07-30T00:52:44.823Z,20.30
2022-07-30T00:55:14.917Z,20.30
2022-07-30T00:57:43.035Z,20.30
2022-07-30T01:00:14.476Z,20.30
2022-07-30T01:02:42.639Z,20.30
2022-07-30T01:05:10.707Z,20.30
2022-07-30T01:07:38.362Z,20.40
2022-07-30T01:10:07.741Z,20.40
2022-07-30T01:12:37.451Z,20.40
2022-07-30T01:15:07.524Z,20.40
2022-07-30T01:17:36.041Z,20.50
2022-07-30T01:20:31.173Z,20.50
2022-07-30T01:23:28.066Z,20.50
2022-07-30T01:26:08.565Z,20.50
2022-07-30T01:28:42.281Z,20.50
2022-07-30T01:31:12.852Z,20.50
2022-07-30T01:33:44.886Z,20.50
2022-07-30T01:36:14.731Z,20.60
2022-07-30T01:38:46.117Z,20.60
2022-07-30T01:41:15.227Z,20.60
2022-07-30T01:43:45.285Z,20.60
2022-07-30T01:46:16.431Z,20.60
2022-07-30T01:48:47.112Z,20.60
2022-07-30T01:51:18.036Z,20.60
2022-07-30T01:53:51.037Z,20.60
2022-07-30T01:56:24.892Z,20.60
2022-07-30T01:58:55.769Z,20.60
2022-07-30T02:01:26.276Z,20.60
2022-07-30T02:04:01.917Z,20.70
2022-07-30T02:06:37.356Z,20.70
2022-07-30T02:09:11.053Z,20.70
2022-07-30T02:12:01.714Z,20.60
2022-07-30T02:14:45.348Z,20.70
2022-07-30T02:17:19.398Z,20.70
2022-07-30T02:19:52.987Z,20.60
2022-07-30T02:22:23.406Z,20.60
2022-07-30T02:24:52.034Z,20.60
2022-07-30T02:27:28.812Z,20.60
2022-07-30T02:29:59.113Z,20.60
2022-07-30T02:32:32.371Z,20.60
2022-07-30T02:35:05.923Z,20.60
2022-07-30T02:37:43.096Z,20.60
2022-07-30T02:40:16.932Z,20.60
2022-07-30T02:42:47.324Z,20.60
2022-07-30T02:45:18.743Z,20.60
2022-07-30T02:47:50.415Z,20.60
2022-07-30T02:50:20.945Z,20.60
2022-07-30T02:52:50.849Z,20.60
2022-07-30T02:55:18.820Z,20.50
2022-07-30T02:57:48.394Z,20.60
2022-07-30T03:00:17.032Z,20.60
2022-07-30T03:02:46.169Z,20.50
2022-07-30T03:05:15.532Z,20.50
2022-07-30T03:07:44.282Z,20.50
2022-07-30T03:10:12.952Z,20.50
2022-07-30T03:12:45.120Z,20.50
2022-07-30T03:15:15.667Z,20.60
2022-07-30T03:17:53.094Z,20.50
2022-07-30T03:20:25.888Z,20.50
2022-07-30T03:22:55.026Z,20.50
2022-07-30T03:25:30.733Z,20.50
2022-07-30T03:28:02.865Z,20.50
2022-07-30T03:30:31.115Z,20.50
2022-07-30T03:32:59.831Z,20.50
2022-07-30T03:35:31.110Z,20.50
2022-07-30T03:38:00.340Z,20.40
2022-07-30T03:40:29.003Z,20.40
2022-07-30T03:42:56.851Z,20.40
2022-07-30T03:45:26.402Z,20.30
2022-07-30T03:48:00.005Z,20.30
2022-07-30T03:50:29.078Z,20.30
2022-07-30T03:52:57.292Z,20.30
2022-07-30T03:55:25.487Z,20.30
2022-07-30T03:58:24.972Z,20.30
2022-07-30T04:00:52.451Z,20.30
2022-07-30T04:03:27.787Z,20.30
2022-07-30T04:05:59.794Z,20.30
2022-07-30T04:08:30.691Z,20.40
2022-07-30T04:10:58.575Z,20.30
2022-07-30T04:13:48.435Z,20.30
2022-07-30T04:16:39.283Z,20.30
2022-07-30T04:19:16.393Z,20.30
2022-07-30T04:21:47.191Z,20.30
2022-07-30T04:24:17.081Z,20.30
2022-07-30T04:26:46.127Z,20.40
2022-07-30T04:29:17.293Z,20.30
2022-07-30T04:31:46.476Z,20.30
2022-07-30T04:34:36.800Z,20.30
2022-07-30T04:37:07.912Z,20.30
2022-07-30T04:39:35.868Z,20.30
2022-07-30T04:42:03.468Z,20.40
2022-07-30T04:44:38.310Z,20.40
2022-07-30T04:47:27.396Z,20.40
2022-07-30T04:50:28.808Z,20.40
2022-07-30T04:52:58.111Z,20.30
2022-07-30T04:55:32.912Z,20.40
2022-07-30T04:58:02.630Z,20.40
2022-07-30T05:00:40.452Z,20.40
2022-07-30T05:03:13.987Z,20.40
2022-07-30T05:05:47.143Z,20.50
2022-07-30T05:08:14.939Z,20.40
2022-07-30T05:10:44.795Z,20.50
2022-07-30T05:13:14.240Z,20.50
2022-07-30T05:15:46.760Z,20.50
2022-07-30T05:18:17.338Z,20.50
2022-07-30T05:20:45.036Z,20.50
2022-07-30T05:23:16.973Z,20.50
2022-07-30T05:25:51.489Z,20.50
2022-07-30T05:28:29.267Z,20.50
2022-07-30T05:30:59.634Z,20.60
2022-07-30T05:33:40.961Z,20.60
2022-07-30T05:36:11.768Z,20.60
2022-07-30T05:38:40.721Z,20.70
2022-07-30T05:41:32.718Z,20.70
2022-07-30T05:44:39.163Z,20.70
2022-07-30T05:47:06.626Z,20.70
2022-07-30T05:49:34.367Z,20.70
2022-07-30T05:52:08.004Z,20.70
2022-07-30T05:54:35.769Z,20.80
2022-07-30T05:57:21.727Z,20.70
2022-07-30T05:59:50.365Z,20.80
2022-07-30T06:02:44.499Z,20.80
2022-07-30T06:05:14.851Z,20.80
2022-07-30T06:07:43.877Z,20.90
2022-07-30T06:10:11.896Z,21.00
2022-07-30T06:12:39.588Z,21.00
2022-07-30T06:15:08.860Z,21.10
2022-07-30T06:17:51.141Z,21.20
2022-07-30T06:20:54.735Z,21.30
2022-07-30T06:23:34.304Z,21.50
2022-07-30T06:26:18.386Z,21.70
2022-07-30T06:28:46.046Z,21.80
2022-07-30T06:31:18.653Z,22.00
2022-07-30T06:33:46.872Z,22.10
2022-07-30T06:36:15.007Z,22.20
2022-07-30T06:39:08.885Z,22.20
2022-07-30T06:41:56.460Z,22.40
2022-07-30T06:44:27.753Z,22.50
2022-07-30T06:47:19.477Z,22.60
2022-07-30T06:49:47.053Z,22.70
2022-07-30T06:52:18.613Z,22.70
2022-07-30T06:54:51.338Z,22.70
2022-07-30T06:57:37.569Z,22.70
2022-07-30T07:00:14.640Z,22.70
2022-07-30T07:02:45.429Z,22.60
2022-07-30T07:05:14.667Z,22.60
2022-07-30T07:07:58.312Z,22.70
2022-07-30T07:10:29.416Z,22.80
2022-07-30T07:13:09.449Z,22.90
2022-07-30T07:15:37.662Z,23.00
2022-07-30T07:18:09.716Z,23.10
2022-07-30T07:20:39.740Z,23.30
2022-07-30T07:23:12.013Z,23.60
2022-07-30T07:25:41.590Z,24.00
2022-07-30T07:28:12.128Z,24.20
2022-07-30T07:30:42.229Z,24.50
2022-07-30T07:33:10.619Z,24.60
2022-07-30T07:35:48.888Z,24.70
2022-07-30T07:38:26.077Z,24.80
2022-07-30T07:40:55.432Z,24.90
2022-07-30T07:43:25.199Z,25.10
2022-07-30T07:45:55.190Z,25.30
2022-07-30T07:48:22.912Z,25.40
2022-07-30T07:50:59.917Z,25.60
2022-07-30T07:53:30.341Z,25.70
2022-07-30T07:55:59.600Z,25.70
2022-07-30T07:58:28.025Z,25.80
2022-07-30T08:01:00.130Z,26.00
2022-07-30T08:03:48.424Z,26.20
2022-07-30T08:06:38.615Z,26.40
2022-07-30T08:09:24.875Z,26.40
2022-07-30T08:12:23.514Z,26.50
2022-07-30T08:15:16.219Z,26.50
2022-07-30T08:18:05.272Z,26.50
2022-07-30T08:21:01.560Z,26.40
2022-07-30T08:23:32.467Z,26.40
2022-07-30T08:26:00.546Z,26.40
2022-07-30T08:28:36.073Z,26.50
2022-07-30T08:31:05.946Z,26.70
2022-07-30T08:33:33.967Z,27.00
2022-07-30T08:36:09.040Z,27.30
2022-07-30T08:38:38.984Z,27.70
2022-07-30T08:41:07.656Z,28.10
2022-07-30T08:43:36.664Z,28.50
2022-07-30T08:46:09.912Z,28.80
2022-07-30T08:51:23.063Z,29.30
2022-07-30T08:54:09.479Z,29.40
2022-07-30T08:56:38.239Z,29.50
2022-07-30T08:59:07.686Z,29.50
2022-07-30T09:01:35.430Z,29.40
2022-07-30T09:04:03.451Z,29.30
2022-07-30T09:06:31.073Z,29.40
2022-07-30T09:08:59.889Z,29.50
2022-07-30T09:11:27.893Z,29.80
2022-07-30T09:14:08.636Z,30.20
2022-07-30T09:16:36.713Z,30.60
2022-07-30T09:19:13.317Z,31.00
2022-07-30T09:21:41.296Z,31.60
2022-07-30T09:24:24.501Z,31.90
2022-07-30T09:27:48.159Z,32.10
2022-07-30T09:30:52.169Z,32.10
2022-07-30T09:33:40.546Z,32.20
2022-07-30T09:36:40.359Z,32.30
2022-07-30T09:39:41.741Z,32.30
2022-07-30T09:42:44.668Z,32.20
2022-07-30T09:45:15.605Z,32.10
2022-07-30T09:47:48.363Z,32.10
2022-07-30T09:50:30.030Z,32.10
2022-07-30T09:53:11.813Z,32.20
2022-07-30T09:55:42.287Z,32.30
2022-07-30T09:58:12.941Z,32.40
2022-07-30T10:00:45.601Z,32.50
2022-07-30T10:03:42.566Z,32.50
2022-07-30T10:06:38.222Z,32.50
2022-07-30T10:09:45.259Z,32.50
2022-07-30T10:12:15.914Z,32.50
2022-07-30T10:14:49.272Z,32.40
2022-07-30T10:17:23.269Z,32.30
2022-07-30T10:20:16.696Z,32.10
2022-07-30T10:22:50.137Z,31.80
2022-07-30T10:25:49.363Z,31.60
2022-07-30T10:28:42.756Z,31.30
2022-07-30T10:31:46.638Z,31.00
2022-07-30T10:33:59.226Z,30.80
2022-07-30T10:36:27.987Z,30.60
2022-07-30T10:38:56.245Z,30.40
2022-07-30T10:42:02.209Z,30.30
2022-07-30T10:45:08.305Z,30.10
2022-07-30T10:47:49.417Z,30.00
2022-07-30T10:50:26.841Z,30.00
2022-07-30T10:52:55.991Z,30.00
2022-07-30T10:55:32.882Z,30.00
2022-07-30T10:58:12.208Z,30.10
2022-07-30T11:00:51.567Z,30.20
2022-07-30T11:03:40.294Z,30.20
2022-07-30T11:06:15.294Z,30.20
2022-07-30T11:08:48.492Z,30.20
2022-07-30T11:12:00.049Z,30.20
2022-07-30T11:14:10.347Z,30.20
2022-07-30T11:16:40.738Z,30.10
2022-07-30T11:19:56.467Z,30.00
2022-07-30T11:22:26.889Z,29.90
2022-07-30T11:24:54.991Z,29.80
2022-07-30T11:27:41.962Z,29.70
2022-07-30T11:30:17.708Z,29.70
2022-07-30T11:32:48.561Z,29.70
2022-07-30T11:35:34.568Z,29.60
2022-07-30T11:38:22.440Z,29.60
2022-07-30T11:40:49.982Z,29.60
2022-07-30T11:43:35.549Z,29.60
2022-07-30T11:46:29.240Z,29.60
2022-07-30T11:48:59.780Z,29.50
2022-07-30T11:51:27.751Z,29.50
2022-07-30T11:54:07.276Z,29.50
2022-07-30T11:56:34.876Z,29.40
2022-07-30T11:59:08.136Z,29.40
2022-07-30T12:01:35.942Z,29.40
2022-07-30T12:04:08.859Z,29.50
2022-07-30T12:06:45.828Z,29.40
2022-07-30T12:09:20.991Z,29.40
2022-07-30T12:11:48.864Z,29.30
2022-07-30T12:14:16.348Z,29.20
2022-07-30T12:16:53.052Z,29.00
2022-07-30T12:19:21.279Z,28.70
2022-07-30T12:21:52.939Z,28.40
2022-07-30T12:24:27.287Z,28.10
2022-07-30T12:27:05.521Z,27.80
2022-07-30T12:29:36.593Z,27.50
2022-07-30T12:32:04.483Z,27.20
2022-07-30T12:34:32.061Z,27.00
2022-07-30T12:37:10.030Z,26.70
2022-07-30T12:39:38.076Z,26.50
2022-07-30T12:42:21.193Z,26.30
2022-07-30T12:44:51.878Z,26.20
2022-07-30T12:47:27.385Z,26.00
2022-07-30T12:49:57.460Z,25.90
2022-07-30T12:52:30.781Z,25.80
2022-07-30T12:54:59.716Z,25.60
2022-07-30T12:57:27.196Z,25.60
2022-07-30T13:00:06.901Z,25.50
2022-07-30T13:02:36.121Z,25.50
2022-07-30T13:05:10.680Z,25.50
2022-07-30T13:07:58.027Z,25.60
2022-07-30T13:10:30.766Z,25.60
2022-07-30T13:12:59.733Z,25.70
2022-07-30T13:15:27.284Z,25.70
2022-07-30T13:17:54.675Z,25.80
2022-07-30T13:20:22.546Z,25.90
2022-07-30T13:22:50.112Z,25.80
2022-07-30T13:25:18.009Z,25.80
2022-07-30T13:27:45.525Z,25.70
2022-07-30T13:30:13.559Z,25.60
2022-07-30T13:32:41.167Z,25.50
2022-07-30T13:35:09.411Z,25.40
2022-07-30T13:37:38.085Z,25.20
2022-07-30T13:40:07.765Z,25.10
2022-07-30T13:42:35.320Z,25.00
2022-07-30T13:45:02.992Z,25.00
2022-07-30T13:47:30.455Z,24.90
2022-07-30T13:49:58.247Z,24.80
2022-07-30T13:52:25.756Z,24.90
2022-07-30T13:54:54.386Z,24.90
2022-07-30T13:57:21.794Z,24.90
2022-07-30T13:59:49.335Z,24.90
2022-07-30T14:02:16.724Z,24.90
2022-07-30T14:04:44.114Z,24.80
2022-07-30T14:07:11.497Z,24.80
2022-07-30T14:09:44.630Z,24.80
2022-07-30T14:12:15.408Z,24.80
2022-07-30T14:14:42.820Z,24.80
2022-07-30T14:17:10.573Z,24.70
2022-07-30T14:19:37.922Z,24.70
2022-07-30T14:22:05.305Z,24.70
2022-07-30T14:24:33.119Z,24.70
2022-07-30T14:27:01.446Z,24.70
2022-07-30T14:29:29.064Z,24.70
2022-07-30T14:31:57.037Z,24.80
2022-07-30T14:34:25.005Z,24.90
2022-07-30T14:36:52.829Z,24.90
2022-07-30T14:39:21.027Z,25.00
2022-07-30T14:41:48.619Z,25.00
2022-07-30T14:44:20.899Z,25.10
2022-07-30T14:46:52.508Z,25.10
2022-07-30T14:49:22.658Z,25.20
2022-07-30T14:51:50.846Z,25.20
2022-07-30T14:54:19.215Z,25.20
2022-07-30T14:56:46.551Z,25.20
2022-07-30T14:59:14.466Z,25.20
2022-07-30T15:01:43.807Z,25.20
2022-07-30T15:04:12.388Z,25.20
2022-07-30T15:06:41.818Z,25.20
2022-07-30T15:09:10.280Z,25.20
2022-07-30T15:12:04.321Z,25.20
2022-07-30T15:14:26.985Z,25.20
2022-07-30T15:17:03.491Z,25.20
2022-07-30T15:19:32.796Z,25.20
2022-07-30T15:22:02.152Z,25.20
2022-07-30T15:24:31.345Z,25.20
2022-07-30T15:26:59.399Z,25.10
2022-07-30T15:29:29.349Z,25.10
2022-07-30T15:32:00.142Z,25.10
2022-07-30T15:34:28.743Z,25.10
2022-07-30T15:36:56.529Z,25.00
2022-07-30T15:39:23.995Z,25.00
2022-07-30T15:41:53.987Z,25.10
2022-07-30T15:44:21.662Z,25.10
2022-07-30T15:46:49.275Z,25.20
2022-07-30T15:49:17.114Z,25.20
2022-07-30T15:51:48.727Z,25.20
2022-07-30T15:54:22.143Z,25.30
2022-07-30T15:56:51.634Z,25.20
2022-07-30T15:59:20.584Z,25.20
2022-07-30T16:01:48.569Z,25.20
2022-07-30T16:04:19.101Z,25.20
2022-07-30T16:06:53.300Z,25.20
2022-07-30T16:09:20.785Z,25.20
2022-07-30T16:11:49.672Z,25.30
2022-07-30T16:14:17.188Z,25.30
2022-07-30T16:16:44.875Z,25.30
2022-07-30T16:19:12.378Z,25.30
2022-07-30T16:21:40.063Z,25.30
2022-07-30T16:24:07.797Z,25.30
2022-07-30T16:26:37.155Z,25.30
2022-07-30T16:29:05.567Z,25.30
2022-07-30T16:31:32.979Z,25.20
2022-07-30T16:34:01.552Z,25.20
2022-07-30T16:36:28.981Z,25.20
2022-07-30T16:38:56.824Z,25.10
2022-07-30T16:41:24.591Z,25.20
2022-07-30T16:43:52.056Z,25.10
2022-07-30T16:46:19.527Z,25.10
2022-07-30T16:48:47.337Z,25.10
2022-07-30T16:51:18.172Z,25.00
2022-07-30T16:53:46.284Z,25.00
2022-07-30T16:56:14.032Z,25.00
2022-07-30T16:58:41.466Z,25.00
2022-07-30T17:01:09.754Z,25.00
2022-07-30T17:03:37.454Z,25.00
2022-07-30T17:06:04.826Z,24.90
2022-07-30T17:08:32.464Z,24.90
2022-07-30T17:11:00.855Z,24.90
2022-07-30T17:13:28.790Z,24.90
2022-07-30T17:15:56.400Z,24.90
2022-07-30T17:18:23.977Z,24.90
2022-07-30T17:20:52.300Z,24.90
2022-07-30T17:23:19.868Z,24.80
2022-07-30T17:25:47.677Z,24.80
2022-07-30T17:28:15.263Z,24.80
2022-07-30T17:30:42.657Z,24.70
2022-07-30T17:33:11.117Z,24.70
2022-07-30T17:35:38.506Z,24.70
2022-07-30T17:38:07.298Z,24.60
2022-07-30T17:40:34.725Z,24.60
2022-07-30T17:43:05.903Z,24.60
2022-07-30T17:45:34.786Z,24.60
2022-07-30T17:48:04.741Z,24.50
2022-07-30T17:50:33.375Z,24.50
2022-07-30T17:53:04.012Z,24.50
2022-07-30T17:55:34.711Z,24.50
2022-07-30T17:58:03.982Z,24.50
2022-07-30T18:00:31.754Z,24.40
2022-07-30T18:02:59.363Z,24.30
2022-07-30T18:05:27.105Z,24.30
2022-07-30T18:07:54.500Z,24.30
2022-07-30T18:10:21.990Z,24.20
2022-07-30T18:12:49.553Z,24.20
2022-07-30T18:15:18.356Z,24.20
2022-07-30T18:17:46.102Z,24.10
2022-07-30T18:20:15.109Z,24.00
2022-07-30T18:22:43.267Z,24.00
2022-07-30T18:25:17.877Z,24.00
2022-07-30T18:27:48.045Z,24.00
2022-07-30T18:30:15.916Z,23.90
2022-07-30T18:32:45.208Z,23.90
2022-07-30T18:35:14.892Z,23.90
2022-07-30T18:37:44.350Z,23.90
2022-07-30T18:40:13.558Z,23.80
2022-07-30T18:42:42.031Z,23.80
2022-07-30T18:45:13.570Z,23.80
2022-07-30T18:47:42.786Z,23.70
2022-07-30T18:50:12.071Z,23.70
2022-07-30T18:52:39.838Z,23.70
2022-07-30T18:55:09.043Z,23.60
2022-07-30T18:57:36.892Z,23.60
2022-07-30T19:00:06.784Z,23.60
2022-07-30T19:02:34.891Z,23.50
2022-07-30T19:05:02.617Z,23.50
2022-07-30T19:07:30.083Z,23.50
2022-07-30T19:10:18.178Z,23.40
2022-07-30T19:12:45.765Z,23.40
2022-07-30T19:15:14.351Z,23.40
2022-07-30T19:17:45.920Z,23.40
2022-07-30T19:20:14.738Z,23.30
2022-07-30T19:22:42.803Z,23.30
2022-07-30T19:25:11.160Z,23.30
2022-07-30T19:27:39.092Z,23.20
2022-07-30T19:30:07.016Z,23.20
2022-07-30T19:32:34.471Z,23.10
2022-07-30T19:35:01.906Z,23.10
2022-07-30T19:37:29.338Z,23.10
2022-07-30T19:42:44.370Z,23.10
2022-07-30T19:45:13.236Z,23.00
2022-07-30T19:47:43.399Z,23.10
2022-07-30T19:50:14.654Z,23.00
2022-07-30T19:52:51.452Z,23.00
2022-07-30T19:55:34.931Z,23.00
2022-07-30T19:58:05.226Z,23.00
2022-07-30T20:00:49.440Z,22.90
2022-07-30T20:03:26.034Z,23.00
2022-07-30T20:06:00.257Z,23.00
2022-07-30T20:08:28.754Z,23.00
2022-07-30T20:10:57.644Z,22.90
2022-07-30T20:13:45.523Z,22.90
2022-07-30T20:16:15.593Z,22.90
2022-07-30T20:18:46.131Z,22.90
2022-07-30T20:21:16.005Z,22.90
2022-07-30T20:23:44.969Z,22.80
2022-07-30T20:26:14.823Z,22.80
2022-07-30T20:28:52.365Z,22.80
2022-07-30T20:31:20.616Z,22.80
2022-07-30T20:33:50.116Z,22.80
2022-07-30T20:36:19.226Z,22.70
2022-07-30T20:38:47.224Z,22.70
2022-07-30T20:41:15.791Z,22.70
2022-07-30T20:43:46.161Z,22.70
2022-07-30T20:46:31.891Z,22.60
2022-07-30T20:49:00.053Z,22.60
2022-07-30T20:51:33.646Z,22.60
2022-07-30T20:54:02.075Z,22.60
2022-07-30T20:56:29.840Z,22.60
2022-07-30T20:58:57.610Z,22.60
2022-07-30T21:01:28.428Z,22.50
2022-07-30T21:03:58.338Z,22.50
2022-07-30T21:06:26.560Z,22.50
2022-07-30T21:08:56.178Z,22.50
2022-07-30T21:11:24.979Z,22.50
2022-07-30T21:13:53.909Z,22.50
2022-07-30T21:16:23.607Z,22.40
2022-07-30T21:18:51.099Z,22.40
2022-07-30T21:21:30.775Z,22.40
2022-07-30T21:24:11.859Z,22.40
2022-07-30T21:26:40.448Z,22.40
2022-07-30T21:29:08.780Z,22.30
2022-07-30T21:31:59.053Z,22.30
2022-07-30T21:34:26.473Z,22.30
2022-07-30T21:36:54.229Z,22.30
2022-07-30T21:39:29.229Z,22.20
2022-07-30T21:41:57.078Z,22.20
2022-07-30T21:44:24.737Z,22.20
2022-07-30T21:46:55.460Z,22.10
2022-07-30T21:49:23.182Z,22.10
2022-07-30T21:54:48.263Z,22.10
2022-07-30T21:57:26.321Z,22.00
2022-07-30T21:59:55.064Z,22.00
2022-07-30T22:02:26.091Z,22.00
2022-07-30T22:04:55.830Z,22.00
2022-07-30T22:07:23.225Z,21.90
2022-07-30T22:09:51.515Z,21.90
2022-07-30T22:12:19.174Z,21.80
2022-07-30T22:14:49.514Z,21.80
2022-07-30T22:17:23.772Z,21.70
2022-07-30T22:20:04.922Z,21.70
2022-07-30T22:22:37.756Z,21.60
2022-07-30T22:25:06.778Z,21.60
2022-07-30T22:27:56.931Z,21.50
2022-07-30T22:30:26.814Z,21.40
2022-07-30T22:32:55.569Z,21.40
2022-07-30T22:35:32.207Z,21.30
2022-07-30T22:38:03.324Z,21.20
2022-07-30T22:40:31.310Z,21.20
2022-07-30T22:42:58.924Z,21.10
2022-07-30T22:48:20.286Z,21.00
2022-07-30T22:50:55.398Z,20.90
2022-07-30T22:54:03.270Z,20.90
2022-07-30T22:56:14.333Z,20.80
2022-07-30T22:58:43.669Z,20.70
2022-07-30T23:01:11.450Z,20.70
2022-07-30T23:03:39.131Z,20.70
2022-07-30T23:06:14.530Z,20.60
2022-07-30T23:08:43.580Z,20.60
2022-07-30T23:11:11.140Z,20.50
2022-07-30T23:12:17.216Z,23.10
2022-07-30T23:12:30.392Z,21.00
2022-07-30T23:12:31.168Z,22.10
2022-07-30T23:13:40.594Z,20.50
2022-07-30T23:16:08.545Z,20.40
2022-07-30T23:18:35.999Z,20.40
2022-07-30T23:21:04.708Z,20.40
2022-07-30T23:23:34.125Z,20.30
2022-07-30T23:26:03.259Z,20.30
2022-07-30T23:28:31.056Z,20.20
2022-07-30T23:30:59.067Z,20.20
2022-07-30T23:33:26.729Z,20.10
2022-07-30T23:35:54.289Z,20.10
2022-07-30T23:38:22.244Z,20.10
2022-07-30T23:40:49.581Z,20.10
2022-07-30T23:43:17.239Z,20.00
2022-07-30T23:45:45.515Z,20.00
2022-07-30T23:48:13.056Z,20.00
2022-07-30T23:50:40.463Z,19.90
2022-07-30T23:53:07.983Z,19.90
2022-07-30T23:55:36.012Z,19.90
2022-07-30T23:58:04.135Z,19.90
